Terminal Aerodrome Forecast
Issued by NWS Sterling, VA

Home | Current Version | Previous Version | Text Only | Print | Product List | Glossary On
Versions: 1 2 3 4 5 6 7 8 9 10 11 12 13 14 15 16 17 18 19 20
000
FTUS41 KLWX 300500
TAFBWI
TAF
KBWI 300532Z 3006/3112 13005KT P6SM BKN050
     FM300700 13004KT P6SM BKN090
     FM301900 16008KT P6SM BKN090
     FM310600 17006KT 5SM BR BKN250
     FM310900 18006KT P6SM BKN025=

USA.gov is the U.S. government's official web portal to all federal, state and local government web resources and services.